Time;durP1;ratioP1;P1;durP2;ratioP2;P2;SDS_P1;SDS_P2;PMS_P1;PMS_P2;Temp;Humidity;BMP_temperature;BMP_pressure;BME280_temperature;BME280_humidity;BME280_pressure;Samples;Min_cycle;Max_cycle;Signal;HPM_P1;HPM_P2
2023/10/27 00:00:37;;;;;;;10.07;1.88;;;;;;;17.27;54.42;97868.06;4977109;28;20062;-88
2023/10/27 00:03:03;;;;;;;5.93;1.83;;;;;;;17.24;54.54;97863.97;4977150;28;20034;-90
2023/10/27 00:05:28;;;;;;;8.20;1.60;;;;;;;17.21;54.50;97860.88;4977610;28;20442;-85
2023/10/27 00:07:53;;;;;;;8.13;1.52;;;;;;;17.15;54.62;97850.03;4993457;28;20038;-88
2023/10/27 00:10:19;;;;;;;7.90;1.58;;;;;;;17.15;54.91;97846.59;4977016;28;20409;-87
2023/10/27 00:12:45;;;;;;;8.05;1.75;;;;;;;17.18;54.64;97854.13;4977074;28;20030;-88
2023/10/27 00:15:11;;;;;;;8.57;1.92;;;;;;;17.16;54.85;97848.25;4992772;28;20037;-86
2023/10/27 00:17:36;;;;;;;7.47;1.85;;;;;;;17.13;54.84;97836.22;4976737;28;20034;-85
2023/10/27 00:20:03;;;;;;;5.05;1.60;;;;;;;17.12;54.87;97839.03;4976685;28;20118;-86
2023/10/27 00:22:28;;;;;;;8.30;1.75;;;;;;;17.14;54.82;97851.06;4959848;28;20409;-86
2023/10/27 00:24:54;;;;;;;7.95;1.42;;;;;;;17.12;54.70;97857.50;4992853;28;20041;-87
2023/10/27 00:27:20;;;;;;;9.52;1.90;;;;;;;17.11;54.92;97864.59;4976611;28;20556;-86
2023/10/27 00:29:46;;;;;;;7.97;2.05;;;;;;;17.09;55.04;97856.03;4961317;28;20030;-86
2023/10/27 00:32:11;;;;;;;7.28;2.03;;;;;;;17.08;54.90;97854.41;4963434;28;20022;-88
2023/10/27 00:34:37;;;;;;;8.45;2.00;;;;;;;17.04;55.00;97841.75;4947299;28;20038;-88
2023/10/27 00:37:02;;;;;;;10.50;2.28;;;;;;;17.08;55.11;97835.13;4979509;28;20401;-89
2023/10/27 00:39:28;;;;;;;6.10;1.67;;;;;;;17.03;55.15;97830.41;4977012;28;20409;-87
2023/10/27 00:41:53;;;;;;;6.22;2.13;;;;;;;17.03;54.98;97833.03;4961088;28;20030;-89
2023/10/27 00:44:19;;;;;;;9.60;1.50;;;;;;;17.00;55.11;97828.13;4983403;28;20050;-88
2023/10/27 00:46:44;;;;;;;8.65;2.00;;;;;;;17.02;55.10;97833.22;4985419;28;20033;-89
2023/10/27 00:49:11;;;;;;;8.43;1.83;;;;;;;17.01;55.33;97829.75;4962508;28;20053;-88
2023/10/27 00:51:37;;;;;;;7.20;1.95;;;;;;;16.96;55.30;97808.38;4977030;28;20038;-91
2023/10/27 00:54:02;;;;;;;6.07;1.50;;;;;;;16.94;55.33;97813.03;4965279;28;20034;-91
2023/10/27 00:56:28;;;;;;;4.63;1.50;;;;;;;16.94;55.36;97813.84;4990842;28;20037;-89
2023/10/27 00:58:54;;;;;;;4.65;1.50;;;;;;;16.90;55.48;97809.91;4948186;28;20120;-86
2023/10/27 01:01:20;;;;;;;6.60;2.05;;;;;;;16.92;55.41;97809.75;4960491;28;20034;-87
2023/10/27 01:03:45;;;;;;;5.13;1.67;;;;;;;16.92;55.67;97804.47;4959734;28;20092;-87
2023/10/27 01:06:11;;;;;;;5.47;1.80;;;;;;;16.89;55.54;97800.41;4976087;28;20031;-88
2023/10/27 01:08:36;;;;;;;9.23;1.92;;;;;;;16.87;55.58;97801.56;4975842;28;20046;-87
2023/10/27 01:11:02;;;;;;;5.78;1.75;;;;;;;16.82;55.72;97802.91;4943721;28;20034;-87
2023/10/27 01:13:27;;;;;;;7.80;1.60;;;;;;;16.80;55.65;97811.97;4976218;28;20030;-88
2023/10/27 01:15:53;;;;;;;5.22;1.67;;;;;;;16.84;55.71;97818.53;4975864;28;20113;-87
2023/10/27 01:18:18;;;;;;;4.88;1.50;;;;;;;16.86;55.82;97826.28;4960355;28;20042;-88
2023/10/27 01:20:44;;;;;;;8.88;1.50;;;;;;;16.82;55.47;97818.72;4944315;28;20092;-87
2023/10/27 01:23:10;;;;;;;9.10;2.03;;;;;;;16.80;55.51;97819.88;4959596;28;20042;-87
2023/10/27 01:25:35;;;;;;;5.93;1.58;;;;;;;16.81;55.92;97826.81;4946516;28;20055;-88
2023/10/27 01:28:02;;;;;;;8.45;1.92;;;;;;;16.79;55.83;97826.16;4975807;28;20030;-88
2023/10/27 01:30:27;;;;;;;6.15;1.55;;;;;;;16.78;55.92;97821.88;4976223;28;20119;-87
2023/10/27 01:32:54;;;;;;;5.25;1.80;;;;;;;16.79;56.13;97824.34;4992712;28;20481;-88
2023/10/27 01:35:19;;;;;;;5.32;1.50;;;;;;;16.75;56.16;97820.41;4993393;28;20433;-87
2023/10/27 01:37:45;;;;;;;8.60;1.90;;;;;;;16.78;56.22;97821.88;4991783;28;20085;-87
2023/10/27 01:40:12;;;;;;;9.70;1.88;;;;;;;16.77;56.15;97817.59;4995933;28;20097;-87
2023/10/27 01:42:37;;;;;;;5.72;1.70;;;;;;;16.76;56.30;97815.97;4997087;28;20109;-87
2023/10/27 01:45:04;;;;;;;7.65;1.70;;;;;;;16.72;56.46;97804.16;4979236;28;20054;-87
2023/10/27 01:47:30;;;;;;;5.75;1.73;;;;;;;16.73;56.62;97811.03;4979489;28;20492;-87
2023/10/27 01:49:56;;;;;;;4.40;1.50;;;;;;;16.73;56.72;97813.69;4979878;28;20050;-88
2023/10/27 01:52:22;;;;;;;6.57;1.63;;;;;;;16.72;56.65;97825.22;4995913;28;20026;-87
2023/10/27 01:54:47;;;;;;;9.25;1.70;;;;;;;16.72;56.78;97820.78;4996941;28;20031;-87
2023/10/27 01:57:13;;;;;;;6.90;1.92;;;;;;;16.71;56.70;97828.84;4979492;28;20471;-87
2023/10/27 01:59:38;;;;;;;5.22;1.40;;;;;;;16.72;56.67;97831.31;4979164;28;20057;-87
2023/10/27 02:02:04;;;;;;;8.43;1.90;;;;;;;16.69;56.78;97831.66;4979446;28;20065;-86
2023/10/27 02:04:33;;;;;;;5.82;1.33;;;;;;;16.69;57.06;97830.84;4978852;28;20112;-87
2023/10/27 02:06:59;;;;;;;5.25;1.48;;;;;;;16.70;56.96;97830.69;4964094;28;20061;-87
2023/10/27 02:09:24;;;;;;;8.63;1.85;;;;;;;16.69;56.97;97829.03;4995595;28;20089;-86
2023/10/27 02:11:50;;;;;;;6.22;1.60;;;;;;;16.70;56.99;97851.75;4979490;28;20038;-87
2023/10/27 02:14:15;;;;;;;5.45;1.70;;;;;;;16.68;57.14;97839.75;4979011;28;20046;-87
2023/10/27 02:16:41;;;;;;;7.50;1.63;;;;;;;16.67;57.18;97838.94;4979252;28;20089;-87
2023/10/27 02:19:08;;;;;;;6.53;1.88;;;;;;;16.63;57.21;97838.50;4995667;28;20030;-88
2023/10/27 02:21:35;;;;;;;5.50;1.40;;;;;;;16.66;57.24;97847.84;4995539;28;20117;-88
2023/10/27 02:24:00;;;;;;;6.82;1.63;;;;;;;16.58;57.11;97826.84;4978916;28;20121;-88
2023/10/27 02:26:26;;;;;;;11.18;1.67;;;;;;;16.68;57.14;97845.03;4995409;28;20050;-88
2023/10/27 02:28:52;;;;;;;6.40;1.90;;;;;;;16.62;57.37;97831.56;4994553;28;20517;-87
2023/10/27 02:31:18;;;;;;;8.38;1.80;;;;;;;16.66;57.43;97836.47;4962879;28;20057;-88
2023/10/27 02:33:44;;;;;;;4.30;1.75;;;;;;;16.67;57.40;97844.22;4979258;28;20026;-88
2023/10/27 02:36:10;;;;;;;5.45;1.63;;;;;;;16.68;57.29;97848.47;4995435;28;20034;-88
2023/10/27 02:38:35;;;;;;;8.82;1.92;;;;;;;16.69;57.55;97847.47;4996590;28;20480;-88
2023/10/27 02:41:08;;;;;;;5.28;1.60;;;;;;;16.71;57.36;97850.75;4995383;28;20038;-89
2023/10/27 02:43:34;;;;;;;10.73;1.75;;;;;;;16.73;57.38;97851.41;4963158;28;20057;-88
2023/10/27 02:46:01;;;;;;;6.07;1.48;;;;;;;16.69;57.46;97849.31;4995290;28;20469;-86
2023/10/27 02:48:26;;;;;;;8.88;2.50;;;;;;;16.74;57.25;97852.22;4963035;28;20485;-87
2023/10/27 02:50:52;;;;;;;8.45;1.67;;;;;;;16.75;57.34;97859.94;4994658;28;20064;-88
2023/10/27 02:53:18;;;;;;;10.38;1.92;;;;;;;16.76;57.40;97852.84;4996519;28;20404;-87
2023/10/27 02:55:44;;;;;;;7.55;2.00;;;;;;;16.75;57.35;97852.03;4996708;28;20038;-87
2023/10/27 02:58:09;;;;;;;6.82;1.95;;;;;;;16.75;57.39;97857.31;4995653;28;20034;-87
2023/10/27 03:00:35;;;;;;;7.30;2.10;;;;;;;16.78;57.32;97854.31;4984773;28;20030;-87
2023/10/27 03:03:00;;;;;;;6.85;1.73;;;;;;;16.78;57.53;97856.97;4990187;28;20030;-86
2023/10/27 03:05:26;;;;;;;6.50;2.00;;;;;;;16.79;57.56;97855.13;5005265;28;20046;-86
2023/10/27 03:07:51;;;;;;;7.43;1.50;;;;;;;16.79;57.60;97844.59;5010780;28;20027;-87
2023/10/27 03:10:17;;;;;;;4.00;1.73;;;;;;;16.76;57.57;97835.25;4997272;28;20034;-87
2023/10/27 03:12:42;;;;;;;6.93;1.20;;;;;;;16.81;57.83;97837.34;4978593;28;20035;-87
2023/10/27 03:15:09;;;;;;;13.70;1.90;;;;;;;16.80;57.67;97836.50;5002574;28;20038;-86
2023/10/27 03:17:35;;;;;;;5.88;1.48;;;;;;;16.79;57.72;97839.31;5006972;28;20026;-86
2023/10/27 03:20:00;;;;;;;8.45;2.17;;;;;;;16.80;57.60;97841.78;4977965;28;20490;-89
2023/10/27 03:22:27;;;;;;;5.43;1.73;;;;;;;16.76;57.74;97829.97;4993831;28;20022;-88
2023/10/27 03:24:53;;;;;;;6.63;2.03;;;;;;;16.80;57.72;97836.50;4978142;28;20039;-89
2023/10/27 03:27:18;;;;;;;8.23;1.90;;;;;;;16.80;57.76;97830.44;4977806;28;20038;-88
2023/10/27 03:29:45;;;;;;;5.93;1.70;;;;;;;16.70;57.84;97816.66;4978041;28;20522;-90
2023/10/27 03:32:11;;;;;;;7.32;1.88;;;;;;;16.78;57.91;97838.50;4977166;28;20417;-87
2023/10/27 03:34:37;;;;;;;4.13;1.38;;;;;;;16.76;57.87;97832.59;4977961;28;20043;-87
2023/10/27 03:37:03;;;;;;;3.88;1.55;;;;;;;16.79;57.84;97828.78;4995628;28;20114;-88
2023/10/27 03:39:29;;;;;;;8.18;2.03;;;;;;;16.78;57.74;97821.88;4977728;28;20121;-87
2023/10/27 03:41:54;;;;;;;5.57;1.90;;;;;;;16.79;57.94;97820.88;4945159;28;20121;-78
2023/10/27 03:44:20;;;;;;;14.13;2.05;;;;;;;16.81;57.77;97824.16;4945218;28;20074;-85
2023/10/27 03:46:45;;;;;;;8.05;2.00;;;;;;;16.78;57.59;97808.72;4977601;28;20085;-85
2023/10/27 03:49:11;;;;;;;8.65;2.30;;;;;;;16.78;57.70;97814.78;4961879;28;20030;-84
2023/10/27 03:51:37;;;;;;;5.97;2.20;;;;;;;16.84;57.73;97826.44;4960724;28;20041;-86
2023/10/27 03:54:02;;;;;;;5.20;1.92;;;;;;;16.75;57.87;97817.78;4961738;28;20108;-85
2023/10/27 03:56:29;;;;;;;9.63;2.20;;;;;;;16.79;57.88;97824.34;4977240;28;20030;-85
2023/10/27 03:58:54;;;;;;;9.30;2.80;;;;;;;16.82;57.78;97829.25;4946125;28;20042;-86
2023/10/27 04:01:20;;;;;;;8.25;2.20;;;;;;;16.81;57.88;97832.88;4944919;28;20432;-88
2023/10/27 04:03:46;;;;;;;8.50;2.22;;;;;;;16.79;57.72;97836.69;4979678;28;20061;-88
2023/10/27 04:06:12;;;;;;;4.50;2.05;;;;;;;16.79;57.71;97840.16;4994931;28;20045;-90
2023/10/27 04:08:37;;;;;;;8.63;2.20;;;;;;;16.82;57.57;97839.81;4978187;28;20058;-81
2023/10/27 04:11:04;;;;;;;5.45;1.70;;;;;;;16.88;58.79;97848.00;4946787;28;20053;-79
2023/10/27 04:13:31;;;;;;;4.47;1.85;;;;;;;17.03;59.17;97854.13;4962994;28;20066;-84
2023/10/27 04:15:56;;;;;;;10.95;2.17;;;;;;;17.05;58.71;97849.50;4925749;28;20096;-85
2023/10/27 04:18:22;;;;;;;7.50;2.15;;;;;;;17.12;58.12;97846.94;4957417;28;20038;-84
2023/10/27 04:20:47;;;;;;;5.70;2.28;;;;;;;17.14;57.86;97842.31;4925410;28;20031;-85
2023/10/27 04:23:13;;;;;;;5.65;1.90;;;;;;;17.18;57.55;97833.03;4940621;28;20106;-86
2023/10/27 04:25:39;;;;;;;5.65;2.00;;;;;;;17.17;57.33;97824.31;4963868;28;20108;-87
2023/10/27 04:28:06;;;;;;;6.47;1.90;;;;;;;17.21;57.10;97819.50;4976606;28;20030;-84
2023/10/27 04:30:31;;;;;;;7.47;2.03;;;;;;;17.28;56.94;97828.31;4976501;28;20111;-80
2023/10/27 04:32:57;;;;;;;2.90;1.35;;;;;;;17.52;60.91;97829.84;4989521;28;20117;-85
2023/10/27 04:35:27;;;;;;;6.90;1.60;;;;;;;17.55;58.27;97831.28;4956514;28;20473;-82
2023/10/27 04:37:56;;;;;;;9.23;2.10;;;;;;;17.49;57.84;97824.94;4957592;28;20068;-81
2023/10/27 04:40:24;;;;;;;10.40;2.40;;;;;;;17.44;57.14;97823.84;4972974;28;20031;-81
2023/10/27 04:42:59;;;;;;;5.13;1.70;;;;;;;17.43;57.23;97823.03;4957567;28;20022;-87
2023/10/27 04:45:26;;;;;;;8.95;2.15;;;;;;;17.38;56.85;97817.50;4959028;28;20125;-84
2023/10/27 04:47:52;;;;;;;7.75;2.03;;;;;;;17.35;56.83;97818.66;4979643;28;20054;-84
2023/10/27 04:50:18;;;;;;;5.47;2.45;;;;;;;17.31;56.71;97820.03;4994887;28;20109;-84
2023/10/27 04:52:46;;;;;;;11.40;1.92;;;;;;;17.34;56.70;97832.03;4993768;28;20468;-82
2023/10/27 04:55:13;;;;;;;4.55;1.70;;;;;;;17.38;56.58;97835.13;4992363;28;20045;-84
2023/10/27 04:57:47;;;;;;;10.50;2.77;;;;;;;17.33;56.45;97825.97;4997648;28;20049;-88
2023/10/27 05:00:13;;;;;;;9.35;2.58;;;;;;;17.30;56.75;97822.84;4995013;28;20289;-85
2023/10/27 05:02:38;;;;;;;8.00;2.00;;;;;;;17.33;56.39;97830.41;4963531;28;20041;-86
2023/10/27 05:05:09;;;;;;;10.50;2.30;;;;;;;17.30;56.52;97826.31;4978645;28;20046;-88
2023/10/27 05:07:36;;;;;;;12.82;3.20;;;;;;;17.42;58.47;97834.59;4997714;28;20031;-79
2023/10/27 05:10:12;;;;;;;15.93;3.10;;;;;;;17.46;58.32;97827.13;4992556;28;20022;-90
2023/10/27 05:12:48;;;;;;;11.60;2.60;;;;;;;17.45;57.81;97838.69;4974259;28;20046;-86
2023/10/27 05:15:14;;;;;;;9.68;2.53;;;;;;;17.51;57.35;97840.59;4975294;28;20038;-85
2023/10/27 05:17:49;;;;;;;11.55;3.03;;;;;;;17.49;56.92;97829.38;4993128;28;20039;-88
2023/10/27 05:20:18;;;;;;;10.45;2.58;;;;;;;17.57;56.58;97839.88;4979110;28;20497;-88
2023/10/27 05:22:53;;;;;;;11.23;2.83;;;;;;;17.58;56.28;97830.94;4997477;28;20398;-88
2023/10/27 05:25:22;;;;;;;17.27;2.72;;;;;;;17.68;56.00;97830.66;4995202;28;20513;-85
2023/10/27 05:27:49;;;;;;;9.50;2.17;;;;;;;17.74;55.57;97835.19;4963219;28;20034;-86
2023/10/27 05:30:16;;;;;;;14.98;3.35;;;;;;;17.87;55.31;97840.63;4994742;28;20050;-86
2023/10/27 05:32:49;;;;;;;10.93;3.00;;;;;;;17.98;54.84;97833.25;4975916;28;20066;-86
2023/10/27 05:35:15;;;;;;;10.07;2.40;;;;;;;18.32;54.00;97827.28;4979100;28;20425;-86
2023/10/27 05:37:41;;;;;;;9.35;2.75;;;;;;;18.84;53.01;97843.84;4978027;28;20045;-87
2023/10/27 05:40:10;;;;;;;10.93;2.28;;;;;;;19.29;52.01;97847.00;4977131;28;20049;-86
2023/10/27 05:42:38;;;;;;;10.82;2.70;;;;;;;19.77;50.78;97835.63;4980025;28;20062;-85
2023/10/27 05:45:07;;;;;;;8.90;2.15;;;;;;;20.29;49.45;97837.81;4961703;28;20069;-86
2023/10/27 05:47:36;;;;;;;17.67;2.70;;;;;;;20.71;48.47;97831.34;4977227;28;20042;-86
2023/10/27 05:50:06;;;;;;;18.55;2.67;;;;;;;21.14;47.25;97838.03;4994542;28;20046;-86
2023/10/27 05:52:34;;;;;;;8.95;2.47;;;;;;;21.48;46.13;97839.63;4979895;28;20037;-86
2023/10/27 05:55:01;;;;;;;10.27;2.67;;;;;;;21.68;45.98;97826.28;4979021;28;20117;-86
2023/10/27 05:57:27;;;;;;;17.85;3.25;;;;;;;21.86;45.50;97830.09;4978102;28;20050;-84
2023/10/27 05:59:54;;;;;;;17.45;3.22;;;;;;;22.26;44.36;97845.81;4961940;28;20033;-85
2023/10/27 06:02:27;;;;;;;19.80;3.30;;;;;;;22.35;44.02;97839.22;4995875;28;20515;-88
2023/10/27 06:04:52;;;;;;;20.80;2.92;;;;;;;22.89;42.61;97841.50;4995761;28;20042;-91
2023/10/27 06:07:18;;;;;;;12.57;2.65;;;;;;;23.43;41.61;97849.78;4981506;28;20117;-87
2023/10/27 06:09:44;;;;;;;25.08;3.25;;;;;;;23.81;40.72;97852.19;4979789;28;20481;-87
2023/10/27 06:12:09;;;;;;;14.30;3.10;;;;;;;24.32;39.85;97835.97;4962868;28;20133;-87
2023/10/27 06:14:43;;;;;;;20.48;3.72;;;;;;;24.86;38.37;97849.31;4994840;28;20058;-86
2023/10/27 06:17:13;;;;;;;11.88;2.83;;;;;;;25.28;37.92;97839.34;4995099;28;20042;-87
2023/10/27 06:19:40;;;;;;;8.90;2.50;;;;;;;25.93;36.35;97848.16;4964303;28;20037;-88
2023/10/27 06:22:06;;;;;;;11.27;2.13;;;;;;;26.87;35.20;97849.56;4975584;28;20064;-87
2023/10/27 06:24:31;;;;;;;10.90;1.92;;;;;;;27.72;33.34;97843.22;4996293;28;20478;-86
2023/10/27 06:27:06;;;;;;;11.90;2.33;;;;;;;28.68;31.60;97852.56;4982565;28;20077;-88
2023/10/27 06:29:34;;;;;;;10.23;2.47;;;;;;;29.55;30.47;97842.34;4999117;28;20133;-88
2023/10/27 06:32:03;;;;;;;16.17;2.35;;;;;;;30.12;29.04;97851.44;4983687;28;20042;-88
2023/10/27 06:34:32;;;;;;;9.60;1.75;;;;;;;30.38;28.23;97843.47;5000402;28;20501;-88
2023/10/27 06:37:01;;;;;;;7.40;1.85;;;;;;;30.64;27.66;97841.56;5000316;28;20113;-87
2023/10/27 06:39:31;;;;;;;9.82;1.90;;;;;;;30.60;28.41;97845.88;5002633;28;20509;-88
2023/10/27 06:42:01;;;;;;;14.70;2.20;;;;;;;30.45;28.52;97841.28;4985664;28;20034;-88
2023/10/27 06:44:36;;;;;;;8.00;1.98;;;;;;;30.74;27.67;97832.69;5003959;28;20104;-87
2023/10/27 06:47:06;;;;;;;12.57;1.95;;;;;;;31.61;26.28;97834.41;5006906;28;20113;-90
2023/10/27 06:49:33;;;;;;;6.90;1.90;;;;;;;31.72;26.16;97827.06;5003854;28;20026;-88
2023/10/27 06:52:13;;;;;;;10.57;1.83;;;;;;;31.85;26.18;97834.56;5002339;28;20034;-90
2023/10/27 06:54:44;;;;;;;11.25;2.60;;;;;;;31.99;26.08;97826.69;5004145;28;20034;-88
2023/10/27 06:59:59;;;;;;;9.43;2.45;;;;;;;32.80;25.01;97823.69;5014553;28;20065;-86
2023/10/27 07:02:26;;;;;;;9.95;2.10;;;;;;;33.06;24.80;97824.22;4999270;28;20050;-86
2023/10/27 07:04:52;;;;;;;12.55;1.90;;;;;;;33.20;24.45;97840.59;5001181;28;20480;-88
2023/10/27 07:07:19;;;;;;;14.30;2.17;;;;;;;32.32;25.47;97837.81;4967648;28;20088;-87
2023/10/27 07:09:47;;;;;;;12.70;2.40;;;;;;;34.08;23.46;97829.53;4969060;28;20474;-88
2023/10/27 07:12:13;;;;;;;15.05;2.33;;;;;;;34.19;23.43;97824.75;5018230;28;20219;-86
2023/10/27 07:14:40;;;;;;;17.05;2.50;;;;;;;33.99;23.30;97825.88;5001460;28;20101;-88
2023/10/27 07:17:07;;;;;;;13.00;2.22;;;;;;;33.71;24.15;97831.09;5000410;28;20033;-87
2023/10/27 07:20:03;;;;;;;9.77;2.60;;;;;;;34.23;23.14;97831.22;5000413;28;20052;-90
2023/10/27 07:22:30;;;;;;;8.25;2.33;;;;;;;34.21;23.26;97828.78;5019889;28;20025;-89
2023/10/27 07:24:57;;;;;;;13.77;2.40;;;;;;;33.08;24.73;97832.03;4994272;28;20402;-86
2023/10/27 07:27:22;;;;;;;13.68;2.17;;;;;;;32.30;25.44;97826.47;4969376;28;20023;-88
2023/10/27 07:29:48;;;;;;;13.48;2.80;;;;;;;31.88;26.24;97825.09;4970894;28;20042;-88
2023/10/27 07:32:13;;;;;;;10.40;2.35;;;;;;;31.86;26.44;97828.06;4962904;28;20031;-79
2023/10/27 07:34:39;;;;;;;12.48;2.47;;;;;;;31.59;29.19;97830.38;4976734;28;20027;-79
2023/10/27 07:37:06;;;;;;;15.40;2.38;;;;;;;31.97;28.27;97828.03;4974706;28;20031;-78
2023/10/27 07:39:31;;;;;;;10.00;2.20;;;;;;;32.36;27.35;97811.06;4942863;28;20045;-78
2023/10/27 07:41:57;;;;;;;22.52;2.65;;;;;;;32.73;27.08;97815.09;4958463;28;20047;-78
2023/10/27 07:44:22;;;;;;;17.40;2.78;;;;;;;32.56;27.35;97810.06;4942675;28;20043;-79
2023/10/27 07:46:48;;;;;;;19.60;2.30;;;;;;;31.90;28.48;97812.94;4958525;28;20074;-78
2023/10/27 07:49:14;;;;;;;16.77;2.40;;;;;;;31.82;28.56;97797.34;4959017;28;20031;-78
2023/10/27 07:51:39;;;;;;;16.15;2.60;;;;;;;31.61;28.51;97796.63;4976496;28;20497;-78
2023/10/27 07:54:05;;;;;;;14.50;2.40;;;;;;;31.07;28.91;97787.38;4958400;28;20027;-79
2023/10/27 07:56:32;;;;;;;10.52;2.30;;;;;;;30.90;29.04;97785.00;4958159;28;20034;-78
2023/10/27 07:58:58;;;;;;;9.82;2.28;;;;;;;30.78;29.43;97798.72;4957848;28;20117;-77
2023/10/27 08:01:25;;;;;;;11.52;2.38;;;;;;;31.01;29.17;97788.47;4957745;28;20506;-81
2023/10/27 08:03:52;;;;;;;7.75;1.65;;;;;;;31.08;28.75;97797.09;4941914;28;20081;-82
2023/10/27 08:06:18;;;;;;;14.57;2.23;;;;;;;31.21;29.18;97795.69;4942037;28;20097;-81
2023/10/27 08:08:46;;;;;;;10.60;2.28;;;;;;;30.95;29.11;97781.47;4975293;28;20049;-83
2023/10/27 08:11:17;;;;;;;10.55;2.55;;;;;;;30.74;29.10;97781.50;4960037;28;20065;-79
2023/10/27 08:13:43;;;;;;;14.85;2.95;;;;;;;30.86;28.55;97783.91;4960571;28;20033;-79
2023/10/27 08:16:09;;;;;;;12.75;2.38;;;;;;;30.95;28.95;97776.09;4960857;28;20037;-86
2023/10/27 08:18:34;;;;;;;10.93;2.70;;;;;;;30.80;29.20;97775.00;4977892;28;20030;-75
2023/10/27 08:21:00;;;;;;;18.17;2.65;;;;;;;30.58;29.46;97778.00;4977165;28;20041;-77
2023/10/27 08:23:25;;;;;;;16.27;2.67;;;;;;;30.49;29.28;97769.69;4976948;28;20469;-78
2023/10/27 08:25:52;;;;;;;15.82;2.30;;;;;;;29.80;30.01;97765.56;4994274;28;20030;-82
2023/10/27 08:28:21;;;;;;;16.33;2.67;;;;;;;29.37;30.63;97746.88;4945325;28;20034;-82
2023/10/27 08:30:47;;;;;;;15.95;3.00;;;;;;;29.12;31.25;97750.22;4977251;28;20473;-79
2023/10/27 08:33:14;;;;;;;16.50;2.25;;;;;;;28.80;31.96;97764.56;4976316;28;20049;-77
2023/10/27 08:35:40;;;;;;;14.27;2.80;;;;;;;28.55;32.35;97770.53;4977181;28;20124;-80
2023/10/27 08:38:05;;;;;;;10.93;2.70;;;;;;;28.30;32.84;97765.78;4976012;28;20039;-78
2023/10/27 08:40:31;;;;;;;13.65;3.00;;;;;;;28.11;33.31;97768.03;4960044;28;20153;-75
2023/10/27 08:42:56;;;;;;;13.73;2.80;;;;;;;27.99;33.47;97770.91;4976474;28;20026;-79
2023/10/27 08:45:22;;;;;;;16.92;3.17;;;;;;;27.97;34.16;97771.16;4959568;28;20042;-79
2023/10/27 08:47:48;;;;;;;21.20;3.03;;;;;;;27.93;34.00;97774.56;4959696;28;20034;-80
2023/10/27 08:50:13;;;;;;;18.42;3.13;;;;;;;28.34;33.38;97772.28;4960666;28;20507;-82
2023/10/27 08:52:39;;;;;;;15.38;2.70;;;;;;;29.27;32.13;97768.34;4959904;28;20069;-79
2023/10/27 08:55:11;;;;;;;14.82;2.42;;;;;;;29.68;32.18;97783.78;4976055;28;20504;-77
2023/10/27 08:57:37;;;;;;;19.60;2.70;;;;;;;29.58;32.03;97784.56;4993190;28;20189;-77
2023/10/27 09:00:06;;;;;;;13.02;2.70;;;;;;;30.25;31.03;97790.09;4975913;28;20136;-76
2023/10/27 09:02:31;;;;;;;12.50;2.10;;;;;;;30.95;30.24;97781.47;4943631;28;20049;-79
2023/10/27 09:05:03;;;;;;;10.93;2.45;;;;;;;30.74;30.16;97775.31;4959876;28;20034;-78
2023/10/27 09:07:30;;;;;;;13.90;2.42;;;;;;;30.74;30.47;97778.81;4976023;28;20516;-77
2023/10/27 09:09:56;;;;;;;12.68;2.40;;;;;;;30.77;29.88;97778.25;4975515;28;20065;-77
2023/10/27 09:12:26;;;;;;;9.43;2.20;;;;;;;31.11;29.89;97785.75;4959971;28;20109;-78
2023/10/27 09:14:59;;;;;;;14.18;2.38;;;;;;;31.31;29.40;97782.19;4960266;28;20064;-79
2023/10/27 09:17:25;;;;;;;10.27;2.20;;;;;;;31.48;29.03;97779.13;4959805;28;20132;-78
2023/10/27 09:20:03;;;;;;;8.55;2.17;;;;;;;31.81;29.05;97766.06;4993333;28;20034;-78
2023/10/27 09:22:28;;;;;;;9.75;1.90;;;;;;;31.95;28.77;97760.03;4960493;28;20053;-77
2023/10/27 09:24:55;;;;;;;8.90;1.90;;;;;;;31.83;28.73;97750.38;4993691;28;20484;-78
2023/10/27 09:27:25;;;;;;;8.47;2.07;;;;;;;31.79;28.99;97738.56;4960392;28;20045;-78
2023/10/27 09:29:51;;;;;;;8.35;2.35;;;;;;;31.80;28.69;97737.47;4975850;28;20030;-78
2023/10/27 09:32:27;;;;;;;9.15;1.95;;;;;;;31.82;28.49;97726.38;4960363;28;20085;-78
2023/10/27 09:35:13;;;;;;;12.00;2.08;;;;;;;31.61;28.86;97717.63;4977190;28;20029;-77
2023/10/27 09:37:41;;;;;;;7.28;1.92;;;;;;;31.50;29.19;97706.06;4960293;28;20544;-77
2023/10/27 09:40:09;;;;;;;9.75;2.10;;;;;;;31.31;29.60;97704.00;4975764;28;20117;-79
2023/10/27 09:42:35;;;;;;;11.38;2.20;;;;;;;31.14;29.35;97715.13;4976254;28;20078;-76
2023/10/27 09:45:11;;;;;;;13.75;3.03;;;;;;;30.90;29.24;97716.81;4975740;28;20438;-79
2023/10/27 09:47:41;;;;;;;14.85;2.65;;;;;;;30.70;29.41;97709.59;4976417;28;20058;-78
2023/10/27 09:50:09;;;;;;;14.23;2.90;;;;;;;30.57;30.03;97706.41;4993038;28;20037;-78
2023/10/27 09:52:35;;;;;;;10.95;2.58;;;;;;;30.41;30.18;97704.78;4960095;28;20096;-78
2023/10/27 09:55:23;;;;;;;12.00;2.10;;;;;;;30.28;30.40;97703.44;4975315;28;20474;-78
2023/10/27 09:57:49;;;;;;;20.55;2.60;;;;;;;30.21;30.68;97709.09;4916291;29;20039;-78
2023/10/27 10:00:21;;;;;;;15.18;2.42;;;;;;;30.32;30.59;97685.69;4918622;29;20508;-78
2023/10/27 10:02:48;;;;;;;11.15;2.15;;;;;;;30.40;30.80;97690.53;4936246;29;20071;-79
2023/10/27 10:05:13;;;;;;;10.57;2.33;;;;;;;30.42;31.04;97688.38;4921171;29;20059;-77
2023/10/27 10:07:42;;;;;;;9.65;2.00;;;;;;;30.64;30.29;97687.25;4920933;29;20396;-78
2023/10/27 10:10:17;;;;;;;9.18;2.25;;;;;;;30.79;30.54;97673.75;4920734;29;20035;-78
2023/10/27 10:13:12;;;;;;;7.60;2.00;;;;;;;30.92;30.37;97675.03;4904900;29;20043;-78
2023/10/27 10:15:39;;;;;;;9.73;2.20;;;;;;;30.93;30.19;97679.38;4935853;29;20047;-78
2023/10/27 10:18:06;;;;;;;8.77;2.00;;;;;;;30.94;30.31;97675.56;4904726;29;20422;-78
2023/10/27 10:20:49;;;;;;;9.53;2.20;;;;;;;30.92;30.33;97674.25;4920615;29;20491;-79
2023/10/27 10:23:18;;;;;;;9.18;2.25;;;;;;;30.71;30.47;97663.53;4920813;29;20044;-77
2023/10/27 10:25:56;;;;;;;10.23;2.08;;;;;;;30.59;30.89;97661.16;4936805;29;20039;-77
2023/10/27 10:28:34;;;;;;;13.07;2.35;;;;;;;30.35;31.33;97639.38;4920662;28;20449;-78
2023/10/27 10:31:17;;;;;;;6.68;2.20;;;;;;;30.09;31.43;97660.13;4964180;28;20022;-77
2023/10/27 10:33:45;;;;;;;9.77;2.30;;;;;;;29.87;31.58;97644.25;4996520;28;20030;-77
2023/10/27 10:36:23;;;;;;;8.70;2.10;;;;;;;29.65;32.47;97642.63;4978996;28;20070;-83
2023/10/27 10:38:55;;;;;;;12.05;2.40;;;;;;;29.42;32.52;97631.28;4996570;28;20112;-77
2023/10/27 10:41:41;;;;;;;13.43;2.08;;;;;;;29.20;32.89;97626.13;4996071;28;20520;-78
2023/10/27 10:44:16;;;;;;;14.82;2.25;;;;;;;29.08;32.67;97611.31;4964743;28;20038;-78
2023/10/27 10:46:43;;;;;;;11.32;2.10;;;;;;;28.89;33.06;97601.03;4978203;28;20061;-77
2023/10/27 10:49:14;;;;;;;13.55;2.28;;;;;;;28.83;33.41;97592.16;4978659;28;20026;-78
2023/10/27 10:51:39;;;;;;;12.88;2.70;;;;;;;28.68;33.34;97571.44;4946442;28;20069;-77
2023/10/27 10:54:12;;;;;;;8.07;2.25;;;;;;;28.65;33.38;97571.16;4962177;28;20066;-76
2023/10/27 10:56:37;;;;;;;6.63;2.03;;;;;;;28.60;33.66;97576.50;4962215;28;20417;-77
2023/10/27 10:59:03;;;;;;;13.95;2.30;;;;;;;28.44;34.07;97578.28;4961283;28;20051;-77
2023/10/27 11:01:29;;;;;;;9.57;2.00;;;;;;;28.28;34.25;97567.47;4962225;28;20398;-76
2023/10/27 11:03:54;;;;;;;10.70;2.15;;;;;;;28.18;34.42;97575.47;4978121;28;20031;-78
2023/10/27 11:06:20;;;;;;;13.68;2.40;;;;;;;28.10;34.58;97559.84;4995358;28;20476;-77
2023/10/27 11:08:46;;;;;;;9.77;2.05;;;;;;;27.95;34.81;97564.06;4995186;28;20034;-76
2023/10/27 11:11:16;;;;;;;12.20;2.15;;;;;;;27.88;35.00;97578.72;4961648;28;20030;-79
2023/10/27 11:13:46;;;;;;;10.80;2.03;;;;;;;27.80;35.10;97572.78;4963072;28;20501;-78
2023/10/27 11:16:22;;;;;;;14.55;2.50;;;;;;;27.77;34.98;97581.34;4979024;28;20038;-77
2023/10/27 11:18:59;;;;;;;14.57;2.83;;;;;;;27.76;35.36;97570.88;4962886;28;20022;-77
2023/10/27 11:21:27;;;;;;;11.60;2.42;;;;;;;27.77;35.46;97564.47;4962133;28;20100;-78
2023/10/27 11:23:52;;;;;;;10.30;2.40;;;;;;;27.79;35.81;97554.28;4978227;28;20026;-78
2023/10/27 11:26:23;;;;;;;11.82;2.05;;;;;;;27.75;35.43;97556.69;4945547;28;20065;-78
2023/10/27 11:28:53;;;;;;;7.80;2.20;;;;;;;27.75;35.96;97571.94;4977857;28;20089;-78
2023/10/27 11:31:22;;;;;;;8.98;2.20;;;;;;;27.74;35.80;97575.69;4978429;28;20428;-77
2023/10/27 11:34:21;;;;;;;13.23;4.95;;;;;;;27.72;35.96;97575.97;4995079;28;20026;-77